createdAt,value
2017-09-11T00:02:02.511Z,15.20
2017-09-11T00:04:31.594Z,15.10
2017-09-11T00:06:59.834Z,15.10
2017-09-11T00:09:28.079Z,15.10
2017-09-11T00:11:56.350Z,15.00
2017-09-11T00:14:24.606Z,14.90
2017-09-11T00:16:53.606Z,14.80
2017-09-11T00:19:21.879Z,14.80
2017-09-11T00:21:50.118Z,14.70
2017-09-11T00:24:18.374Z,14.70
2017-09-11T00:26:47.137Z,14.60
2017-09-11T00:29:15.378Z,14.50
2017-09-11T00:31:43.614Z,14.50
2017-09-11T00:34:12.038Z,14.50
2017-09-11T00:36:40.293Z,14.50
2017-09-11T00:39:08.530Z,14.50
2017-09-11T00:41:36.794Z,14.40
2017-09-11T00:44:05.042Z,14.50
2017-09-11T00:46:33.285Z,14.40
2017-09-11T00:49:01.871Z,14.40
2017-09-11T00:51:30.097Z,14.30
2017-09-11T00:53:58.335Z,14.30
2017-09-11T00:56:26.610Z,14.30
2017-09-11T00:58:55.522Z,14.20
2017-09-11T01:01:24.534Z,14.10
2017-09-11T01:03:53.206Z,14.10
2017-09-11T01:06:22.211Z,14.10
2017-09-11T01:08:50.451Z,14.10
2017-09-11T01:11:19.008Z,14.10
2017-09-11T01:13:47.250Z,14.10
2017-09-11T01:16:15.505Z,14.20
2017-09-11T01:18:43.790Z,14.10
2017-09-11T01:21:12.794Z,14.20
2017-09-11T01:23:41.046Z,14.20
2017-09-11T01:26:09.313Z,14.20
2017-09-11T01:28:38.230Z,14.20
2017-09-11T01:31:07.234Z,14.10
2017-09-11T01:33:36.569Z,14.10
2017-09-11T01:36:04.862Z,14.00
2017-09-11T01:38:33.101Z,14.00
2017-09-11T01:41:01.378Z,14.00
2017-09-11T01:43:29.622Z,14.00
2017-09-11T01:45:57.863Z,14.00
2017-09-11T01:48:26.128Z,14.00
2017-09-11T01:50:54.362Z,14.00
2017-09-11T01:53:23.374Z,14.00
2017-09-11T01:55:52.907Z,13.90
2017-09-11T01:58:21.147Z,14.00
2017-09-11T02:00:50.301Z,14.00
2017-09-11T02:03:18.569Z,14.00
2017-09-11T02:05:47.302Z,14.00
2017-09-11T02:08:16.305Z,13.90
2017-09-11T02:10:44.578Z,13.90
2017-09-11T02:13:12.828Z,14.00
2017-09-11T02:15:41.061Z,14.00
2017-09-11T02:18:09.854Z,13.90
2017-09-11T02:20:38.103Z,13.90
2017-09-11T02:23:07.101Z,13.90
2017-09-11T02:25:35.358Z,13.90
2017-09-11T02:28:03.599Z,13.90
2017-09-11T02:30:31.847Z,13.80
2017-09-11T02:33:01.277Z,13.80
2017-09-11T02:35:29.523Z,13.70
2017-09-11T02:37:58.410Z,13.70
2017-09-11T02:40:27.175Z,13.70
2017-09-11T02:42:56.185Z,13.70
2017-09-11T02:45:24.438Z,13.70
2017-09-11T02:47:53.471Z,13.70
2017-09-11T02:50:21.712Z,13.70
2017-09-11T02:52:50.722Z,13.70
2017-09-11T02:55:18.983Z,13.60
2017-09-11T02:57:47.241Z,13.70
2017-09-11T03:00:16.247Z,13.60
2017-09-11T03:02:45.905Z,13.60
2017-09-11T03:05:14.193Z,13.60
2017-09-11T03:07:42.930Z,13.60
2017-09-11T03:10:11.960Z,13.60
2017-09-11T03:12:40.198Z,13.50
2017-09-11T03:15:08.446Z,13.50
2017-09-11T03:17:36.713Z,13.50
2017-09-11T03:20:04.961Z,13.40
2017-09-11T03:22:33.198Z,13.40
2017-09-11T03:25:02.646Z,13.40
2017-09-11T03:27:30.890Z,13.40
2017-09-11T03:29:59.130Z,13.40
2017-09-11T03:32:27.398Z,13.40
2017-09-11T03:34:55.638Z,13.30
2017-09-11T03:37:23.874Z,13.30
2017-09-11T03:39:52.142Z,13.30
2017-09-11T03:42:20.951Z,13.30
2017-09-11T03:44:49.190Z,13.30
2017-09-11T03:47:17.950Z,13.30
2017-09-11T03:49:46.248Z,13.30
2017-09-11T03:52:14.490Z,13.30
2017-09-11T03:54:42.784Z,13.30
2017-09-11T03:57:11.046Z,13.30
2017-09-11T03:59:39.301Z,13.30
2017-09-11T04:02:07.570Z,13.30
2017-09-11T04:04:36.590Z,13.30
2017-09-11T04:07:04.822Z,13.30
2017-09-11T04:09:33.978Z,13.30
2017-09-11T04:12:02.225Z,13.30
2017-09-11T04:14:30.466Z,13.30
2017-09-11T04:16:58.742Z,13.20
2017-09-11T04:19:26.991Z,13.30
2017-09-11T04:21:55.235Z,13.30
2017-09-11T04:24:23.497Z,13.20
2017-09-11T04:26:51.742Z,13.20
2017-09-11T04:29:20.000Z,13.20
2017-09-11T04:31:48.777Z,13.20
2017-09-11T04:34:17.022Z,13.10
2017-09-11T04:36:46.026Z,13.10
2017-09-11T04:39:14.301Z,13.10
2017-09-11T04:41:42.538Z,13.10
2017-09-11T04:44:10.794Z,13.10
2017-09-11T04:46:39.730Z,13.10
2017-09-11T04:49:07.970Z,13.00
2017-09-11T04:51:36.212Z,13.00
2017-09-11T04:54:04.574Z,13.00
2017-09-11T04:56:32.851Z,13.00
2017-09-11T04:59:01.838Z,13.10
2017-09-11T05:01:30.872Z,13.10
2017-09-11T05:03:59.121Z,13.10
2017-09-11T05:06:27.369Z,13.20
2017-09-11T05:08:55.626Z,13.10
2017-09-11T05:11:24.330Z,13.10
2017-09-11T05:13:52.574Z,13.10
2017-09-11T05:16:21.154Z,13.10
2017-09-11T05:18:49.394Z,13.10
2017-09-11T05:21:17.642Z,13.10
2017-09-11T05:23:45.922Z,13.10
2017-09-11T05:26:14.930Z,13.20
2017-09-11T05:28:43.938Z,13.20
2017-09-11T05:31:12.207Z,13.20
2017-09-11T05:33:40.447Z,13.20
2017-09-11T05:36:08.685Z,13.20
2017-09-11T05:38:37.650Z,13.30
2017-09-11T05:41:05.894Z,13.40
2017-09-11T05:43:34.144Z,13.50
2017-09-11T05:46:02.730Z,13.50
2017-09-11T05:48:30.953Z,13.60
2017-09-11T05:50:59.207Z,13.70
2017-09-11T05:53:27.474Z,13.80
2017-09-11T05:55:55.710Z,13.90
2017-09-11T05:58:23.956Z,14.00
2017-09-11T06:00:52.358Z,14.10
2017-09-11T06:03:20.598Z,14.20
2017-09-11T06:05:49.618Z,14.30
2017-09-11T06:08:17.874Z,14.30
2017-09-11T06:10:46.117Z,14.30
2017-09-11T06:13:14.738Z,14.40
2017-09-11T06:15:43.774Z,14.50
2017-09-11T06:18:12.014Z,14.40
2017-09-11T06:20:40.270Z,14.40
2017-09-11T06:23:09.036Z,14.30
2017-09-11T06:25:37.255Z,14.30
2017-09-11T06:28:05.494Z,14.40
2017-09-11T06:30:33.766Z,14.40
2017-09-11T06:33:02.052Z,14.40
2017-09-11T06:35:30.294Z,14.40
2017-09-11T06:37:58.730Z,14.30
2017-09-11T06:40:26.941Z,14.40
2017-09-11T06:42:55.186Z,14.40
2017-09-11T06:45:23.712Z,14.40
2017-09-11T06:47:51.969Z,14.50
2017-09-11T06:50:20.210Z,14.60
2017-09-11T06:52:48.476Z,14.70
2017-09-11T06:55:16.712Z,15.00
2017-09-11T06:57:44.949Z,15.00
2017-09-11T07:00:13.984Z,15.10
2017-09-11T07:02:42.223Z,15.10
2017-09-11T07:05:11.238Z,15.10
2017-09-11T07:07:40.042Z,15.10
2017-09-11T07:10:08.281Z,15.10
2017-09-11T07:12:49.032Z,15.20
2017-09-11T07:15:17.598Z,15.20
2017-09-11T07:17:45.841Z,15.20
2017-09-11T07:20:14.111Z,15.20
2017-09-11T07:22:42.359Z,15.20
2017-09-11T07:25:10.603Z,15.30
2017-09-11T07:27:39.721Z,15.30
2017-09-11T07:30:07.945Z,15.40
2017-09-11T07:32:36.222Z,15.50
2017-09-11T07:35:04.486Z,15.60
2017-09-11T07:37:32.762Z,15.70
2017-09-11T07:40:01.002Z,15.80
2017-09-11T07:42:29.282Z,15.80
2017-09-11T07:44:58.281Z,15.90
2017-09-11T07:47:27.310Z,16.00
2017-09-11T07:49:56.006Z,16.00
2017-09-11T07:52:24.241Z,16.20
2017-09-11T07:54:52.482Z,16.30
2017-09-11T07:57:20.751Z,16.40
2017-09-11T07:59:49.819Z,16.60
2017-09-11T08:02:18.058Z,16.80
2017-09-11T08:04:46.334Z,16.90
2017-09-11T08:07:14.579Z,17.00
2017-09-11T08:09:42.958Z,17.00
2017-09-11T08:12:11.419Z,17.00
2017-09-11T08:14:39.660Z,16.90
2017-09-11T08:17:08.466Z,16.90
2017-09-11T08:19:36.761Z,16.90
2017-09-11T08:22:04.985Z,17.00
2017-09-11T08:24:33.235Z,17.00
2017-09-11T08:27:01.494Z,17.00
2017-09-11T08:29:29.734Z,17.00
2017-09-11T08:31:57.982Z,16.90
2017-09-11T08:34:26.418Z,16.90
2017-09-11T08:36:54.662Z,17.00
2017-09-11T08:39:22.899Z,17.10
2017-09-11T08:41:51.175Z,17.20
2017-09-11T08:44:19.414Z,17.20
2017-09-11T08:46:47.766Z,17.20
2017-09-11T08:49:17.600Z,17.20
2017-09-11T08:51:45.842Z,17.20
2017-09-11T08:54:14.085Z,17.30
2017-09-11T08:56:42.854Z,17.30
2017-09-11T08:59:11.095Z,17.30
2017-09-11T09:01:39.338Z,17.30
2017-09-11T09:04:07.634Z,17.40
2017-09-11T09:06:37.758Z,17.70
2017-09-11T09:09:05.966Z,17.70
2017-09-11T09:11:34.230Z,17.90
2017-09-11T09:14:02.481Z,17.90
2017-09-11T09:16:30.717Z,17.90
2017-09-11T09:18:59.806Z,18.10
2017-09-11T09:21:28.058Z,18.00
2017-09-11T09:23:56.297Z,18.00
2017-09-11T09:26:24.603Z,18.00
2017-09-11T09:28:52.838Z,18.10
2017-09-11T09:31:21.082Z,17.70
2017-09-11T09:33:49.372Z,17.80
2017-09-11T09:36:17.602Z,17.90
2017-09-11T09:38:47.470Z,18.10
2017-09-11T09:41:16.078Z,18.10
2017-09-11T09:43:44.322Z,18.20
2017-09-11T09:46:12.573Z,18.20
2017-09-11T09:48:40.839Z,18.10
2017-09-11T09:51:09.078Z,18.10
2017-09-11T09:53:37.346Z,18.30
2017-09-11T09:56:05.647Z,18.50
2017-09-11T09:58:33.994Z,18.40
2017-09-11T10:01:02.354Z,18.60
2017-09-11T10:03:31.885Z,18.70
2017-09-11T10:06:00.134Z,18.50
2017-09-11T10:08:28.374Z,18.50
2017-09-11T10:10:56.638Z,18.40
2017-09-11T10:13:25.638Z,18.60
2017-09-11T10:15:54.650Z,18.60
2017-09-11T10:18:22.911Z,18.60
2017-09-11T10:20:51.690Z,18.50
2017-09-11T10:23:20.715Z,18.50
2017-09-11T10:25:49.417Z,18.50
2017-09-11T10:28:17.665Z,18.40
2017-09-11T10:30:45.903Z,18.20
2017-09-11T10:33:14.177Z,18.10
2017-09-11T10:35:42.430Z,18.10
2017-09-11T10:38:11.611Z,18.30
2017-09-11T10:40:39.882Z,18.10
2017-09-11T10:43:08.130Z,18.20
2017-09-11T10:45:37.138Z,18.20
2017-09-11T10:48:05.657Z,18.20
2017-09-11T10:50:33.893Z,18.20
2017-09-11T10:53:02.944Z,18.50
2017-09-11T10:55:31.189Z,18.50
2017-09-11T10:57:59.434Z,19.00
2017-09-11T11:00:27.683Z,19.50
2017-09-11T11:02:55.990Z,19.60
2017-09-11T11:05:24.234Z,20.20
2017-09-11T11:07:52.605Z,20.50
2017-09-11T11:10:21.000Z,20.40
2017-09-11T11:12:49.366Z,20.40
2017-09-11T11:15:17.606Z,20.30
2017-09-11T11:17:45.886Z,20.60
2017-09-11T11:20:14.130Z,20.60
2017-09-11T11:22:43.465Z,20.40
2017-09-11T11:25:11.742Z,20.40
2017-09-11T11:27:39.986Z,20.70
2017-09-11T11:30:08.230Z,20.70
2017-09-11T11:32:36.573Z,20.70
2017-09-11T11:35:04.819Z,20.40
2017-09-11T11:37:33.062Z,20.20
2017-09-11T11:40:01.386Z,20.20
2017-09-11T11:42:29.671Z,20.30
2017-09-11T11:44:57.922Z,20.00
2017-09-11T11:47:26.186Z,19.90
2017-09-11T11:49:54.433Z,19.50
2017-09-11T11:52:24.306Z,18.20
2017-09-11T11:54:53.529Z,18.20
2017-09-11T11:57:21.783Z,17.70
2017-09-11T11:59:50.022Z,17.50
2017-09-11T12:02:18.303Z,17.50
2017-09-11T12:04:47.299Z,17.60
2017-09-11T12:07:15.725Z,17.80
2017-09-11T12:09:43.992Z,18.10
2017-09-11T12:12:12.257Z,18.50
2017-09-11T12:14:40.477Z,19.00
2017-09-11T12:17:09.898Z,19.60
2017-09-11T12:19:38.138Z,20.60
2017-09-11T12:22:06.382Z,22.00
2017-09-11T12:24:34.774Z,22.60
2017-09-11T12:27:03.020Z,23.20
2017-09-11T12:29:32.034Z,25.40
2017-09-11T12:32:00.302Z,25.30
2017-09-11T12:34:28.547Z,25.60
2017-09-11T12:36:56.812Z,26.20
2017-09-11T12:39:25.382Z,26.60
2017-09-11T12:41:53.618Z,26.60
2017-09-11T12:44:21.854Z,26.30
2017-09-11T12:46:50.122Z,26.10
2017-09-11T12:49:18.358Z,26.20
2017-09-11T12:51:46.595Z,26.60
2017-09-11T12:54:14.849Z,27.30
2017-09-11T12:56:43.095Z,27.00
2017-09-11T12:59:11.350Z,26.10
2017-09-11T13:01:40.957Z,24.70
2017-09-11T13:04:09.194Z,24.60
2017-09-11T13:06:37.487Z,25.00
2017-09-11T13:09:05.754Z,25.90
2017-09-11T13:11:34.142Z,25.90
2017-09-11T13:14:02.391Z,25.20
2017-09-11T13:16:30.794Z,24.90
2017-09-11T13:18:59.064Z,24.70
2017-09-11T13:21:27.332Z,24.00
2017-09-11T13:23:55.691Z,23.80
2017-09-11T13:26:24.714Z,23.40
2017-09-11T13:28:53.013Z,23.20
2017-09-11T13:31:21.291Z,23.20
2017-09-11T13:33:49.591Z,23.40
2017-09-11T13:36:19.553Z,24.40
2017-09-11T13:38:47.845Z,24.40
2017-09-11T13:41:16.082Z,25.80
2017-09-11T13:43:44.323Z,26.00
2017-09-11T13:46:13.985Z,25.70
2017-09-11T13:48:42.273Z,25.70
2017-09-11T13:51:10.519Z,25.00
2017-09-11T13:53:38.791Z,24.20
2017-09-11T13:56:07.042Z,23.60
2017-09-11T13:58:35.486Z,23.30
2017-09-11T14:01:03.762Z,22.90
2017-09-11T14:03:32.002Z,22.70
2017-09-11T14:06:00.289Z,22.40
2017-09-11T14:08:28.626Z,22.40
2017-09-11T14:10:56.878Z,22.30
2017-09-11T14:13:29.184Z,22.50
2017-09-11T14:15:57.436Z,23.40
2017-09-11T14:18:25.675Z,23.60
2017-09-11T14:20:53.998Z,23.40
2017-09-11T14:23:22.250Z,22.90
2017-09-11T14:25:52.009Z,24.90
2017-09-11T14:28:20.800Z,24.90
2017-09-11T14:30:49.219Z,26.40
2017-09-11T14:33:17.451Z,26.60
2017-09-11T14:35:45.733Z,26.80
2017-09-11T14:38:14.035Z,27.50
2017-09-11T14:40:42.289Z,28.30
2017-09-11T14:43:10.578Z,28.30
2017-09-11T14:45:38.839Z,27.60
2017-09-11T14:48:07.991Z,28.50
2017-09-11T14:50:36.521Z,28.60
2017-09-11T14:53:05.734Z,28.50
2017-09-11T14:55:33.978Z,28.90
2017-09-11T14:58:02.274Z,28.70
2017-09-11T15:00:30.568Z,27.10
2017-09-11T15:02:58.819Z,27.00
2017-09-11T15:05:27.082Z,27.80
2017-09-11T15:07:55.334Z,28.70
2017-09-11T15:10:23.703Z,28.70
2017-09-11T15:12:52.105Z,27.80
2017-09-11T15:15:20.334Z,27.00
2017-09-11T15:17:48.575Z,26.60
2017-09-11T15:20:16.846Z,25.90
2017-09-11T15:22:45.090Z,24.90
2017-09-11T15:25:13.556Z,24.50
2017-09-11T15:27:41.810Z,23.70
2017-09-11T15:30:11.473Z,23.20
2017-09-11T15:32:39.782Z,22.80
2017-09-11T15:35:09.228Z,22.20
2017-09-11T15:37:37.490Z,22.00
2017-09-11T15:40:05.719Z,22.00
2017-09-11T15:42:33.994Z,22.10
2017-09-11T15:45:03.182Z,22.00
2017-09-11T15:47:32.198Z,21.90
2017-09-11T15:50:01.227Z,21.60
2017-09-11T15:52:31.740Z,21.50
2017-09-11T15:55:00.207Z,21.40
2017-09-11T15:57:28.551Z,21.40
2017-09-11T15:59:57.846Z,21.40
2017-09-11T16:02:26.551Z,21.40
2017-09-11T16:04:54.824Z,21.00
2017-09-11T16:07:24.211Z,21.40
2017-09-11T16:09:52.576Z,22.70
2017-09-11T16:12:20.863Z,23.80
2017-09-11T16:14:49.274Z,24.60
2017-09-11T16:17:19.467Z,24.10
2017-09-11T16:19:47.915Z,24.10
2017-09-11T16:22:16.243Z,23.80
2017-09-11T16:24:44.607Z,23.60
2017-09-11T16:27:17.008Z,23.50
2017-09-11T16:29:45.350Z,23.10
2017-09-11T16:32:14.662Z,22.70
2017-09-11T16:34:43.054Z,22.30
2017-09-11T16:37:54.175Z,22.30
2017-09-11T16:40:22.847Z,23.10
2017-09-11T16:42:51.176Z,23.50
2017-09-11T16:45:19.567Z,23.70
2017-09-11T16:47:47.977Z,23.40
2017-09-11T16:50:16.310Z,23.40
2017-09-11T16:52:44.689Z,23.50
2017-09-11T16:55:14.059Z,23.60
2017-09-11T16:57:42.808Z,23.30
2017-09-11T17:00:11.143Z,22.60
2017-09-11T17:02:39.526Z,21.90
2017-09-11T17:05:07.819Z,21.20
2017-09-11T17:07:36.274Z,20.70
2017-09-11T17:10:05.605Z,20.40
2017-09-11T17:12:35.711Z,20.30
2017-09-11T17:15:04.114Z,19.90
2017-09-11T17:17:33.129Z,19.80
2017-09-11T17:20:02.269Z,19.50
2017-09-11T17:22:32.634Z,19.40
2017-09-11T17:25:01.054Z,19.30
2017-09-11T17:27:29.294Z,19.30
2017-09-11T17:29:57.640Z,19.20
2017-09-11T17:32:26.160Z,19.20
2017-09-11T17:34:55.175Z,18.90
2017-09-11T17:37:23.526Z,18.80
2017-09-11T17:39:51.797Z,18.60
2017-09-11T17:42:20.061Z,18.40
2017-09-11T17:44:49.266Z,18.40
2017-09-11T17:47:17.978Z,18.30
2017-09-11T17:49:47.574Z,18.20
2017-09-11T17:52:16.582Z,18.20
2017-09-11T17:54:45.640Z,18.10
2017-09-11T17:57:13.877Z,18.10
2017-09-11T17:59:42.297Z,18.10
2017-09-11T18:02:11.617Z,18.10
2017-09-11T18:04:41.203Z,17.90
2017-09-11T18:07:09.446Z,17.70
2017-09-11T18:09:37.774Z,17.60
2017-09-11T18:12:06.032Z,17.50
2017-09-11T18:14:34.420Z,17.40
2017-09-11T18:17:02.702Z,17.50
2017-09-11T18:19:30.942Z,17.40
2017-09-11T18:21:59.247Z,17.30
2017-09-11T18:24:27.653Z,17.50
2017-09-11T18:26:56.671Z,17.40
2017-09-11T18:29:27.008Z,17.40
2017-09-11T18:31:56.227Z,17.30
2017-09-11T18:34:25.132Z,17.30
2017-09-11T18:36:53.506Z,17.20
2017-09-11T18:39:21.925Z,17.20
2017-09-11T18:41:50.922Z,17.20
2017-09-11T18:44:20.725Z,17.10
2017-09-11T18:46:49.774Z,17.00
2017-09-11T18:49:18.030Z,17.00
2017-09-11T18:51:46.291Z,16.90
2017-09-11T18:54:15.011Z,16.90
2017-09-11T18:56:43.307Z,16.80
2017-09-11T18:59:11.694Z,16.90
2017-09-11T19:01:40.807Z,16.80
2017-09-11T19:04:09.066Z,16.80
2017-09-11T19:06:37.442Z,16.60
2017-09-11T19:09:05.706Z,16.60
2017-09-11T19:11:38.818Z,16.30
2017-09-11T19:14:07.423Z,16.30
2017-09-11T19:16:36.498Z,16.10
2017-09-11T19:19:05.783Z,16.10
2017-09-11T19:21:35.121Z,16.10
2017-09-11T19:24:05.508Z,15.90
2017-09-11T19:26:33.755Z,15.90
2017-09-11T19:29:02.145Z,15.90
2017-09-11T19:31:30.378Z,16.00
2017-09-11T19:33:58.831Z,16.00
2017-09-11T19:36:27.445Z,16.00
2017-09-11T19:38:56.454Z,15.80
2017-09-11T19:41:24.714Z,15.80
2017-09-11T19:43:52.994Z,15.60
2017-09-11T19:46:22.806Z,15.60
2017-09-11T19:48:51.827Z,15.60
2017-09-11T19:51:20.090Z,15.60
2017-09-11T19:53:48.336Z,15.60
2017-09-11T19:56:16.703Z,15.50
2017-09-11T19:58:45.463Z,15.40
2017-09-11T20:01:13.782Z,15.40
2017-09-11T20:03:42.378Z,15.30
2017-09-11T20:06:10.734Z,15.40
2017-09-11T20:08:39.086Z,15.50
2017-09-11T20:11:08.502Z,15.50
2017-09-11T20:13:36.782Z,15.50
2017-09-11T20:16:05.030Z,15.40
2017-09-11T20:18:33.274Z,15.50
2017-09-11T20:21:02.102Z,15.60
2017-09-11T20:23:30.352Z,15.60
2017-09-11T20:25:58.586Z,15.60
2017-09-11T20:28:26.889Z,15.50
2017-09-11T20:30:55.105Z,15.40
2017-09-11T20:33:23.385Z,15.40
2017-09-11T20:35:51.647Z,15.30
2017-09-11T20:38:21.038Z,15.20
2017-09-11T20:40:49.284Z,15.10
2017-09-11T20:43:18.898Z,15.00
2017-09-11T20:45:47.159Z,15.00
2017-09-11T20:48:15.412Z,14.90
2017-09-11T20:50:43.677Z,14.80
2017-09-11T20:53:11.917Z,14.80
2017-09-11T20:55:40.926Z,14.60
2017-09-11T20:58:09.202Z,14.60
2017-09-11T21:00:37.455Z,14.60
2017-09-11T21:03:05.702Z,14.50
2017-09-11T21:05:34.468Z,14.50
2017-09-11T21:08:02.739Z,14.50
2017-09-11T21:10:30.991Z,14.50
2017-09-11T21:12:59.259Z,14.50
2017-09-11T21:15:27.507Z,14.50
2017-09-11T21:17:55.747Z,14.50
2017-09-11T21:20:24.010Z,14.50
2017-09-11T21:22:52.415Z,14.40
2017-09-11T21:25:20.658Z,14.40
2017-09-11T21:27:49.326Z,14.30
2017-09-11T21:30:17.570Z,14.40
2017-09-11T21:32:45.806Z,14.30
2017-09-11T21:35:14.070Z,14.30
2017-09-11T21:37:42.322Z,14.30
2017-09-11T21:40:11.854Z,14.20
2017-09-11T21:42:40.131Z,14.20
2017-09-11T21:45:08.374Z,14.20
2017-09-11T21:47:36.626Z,14.20
2017-09-11T21:50:05.267Z,14.20
2017-09-11T21:52:33.519Z,14.30
2017-09-11T21:55:02.530Z,14.30
2017-09-11T21:57:30.803Z,14.20
2017-09-11T21:59:59.066Z,14.20
2017-09-11T22:02:28.078Z,14.20
2017-09-11T22:04:56.350Z,14.20
2017-09-11T22:07:24.595Z,14.20
2017-09-11T22:09:52.838Z,14.10
2017-09-11T22:12:21.618Z,14.00
2017-09-11T22:14:49.858Z,14.00
2017-09-11T22:17:18.878Z,13.90
2017-09-11T22:19:47.151Z,13.90
2017-09-11T22:22:16.006Z,14.00
2017-09-11T22:24:45.020Z,14.10
2017-09-11T22:27:13.289Z,14.00
2017-09-11T22:29:42.302Z,14.00
2017-09-11T22:32:10.553Z,13.90
2017-09-11T22:34:38.894Z,13.90
2017-09-11T22:37:07.134Z,13.90
2017-09-11T22:39:35.395Z,13.90
2017-09-11T22:42:04.287Z,13.90
2017-09-11T22:44:33.294Z,13.90
2017-09-11T22:47:01.554Z,13.90
2017-09-11T22:49:30.581Z,13.80
2017-09-11T22:51:58.832Z,13.80
2017-09-11T22:54:27.091Z,13.80
2017-09-11T22:56:56.442Z,13.70
2017-09-11T22:59:24.699Z,13.70
2017-09-11T23:01:52.941Z,13.70
2017-09-11T23:04:21.210Z,13.70
2017-09-11T23:06:49.447Z,13.70
2017-09-11T23:09:17.687Z,13.80
2017-09-11T23:11:46.726Z,13.80
2017-09-11T23:14:14.958Z,13.70
2017-09-11T23:16:43.199Z,13.70
2017-09-11T23:19:11.521Z,13.80
2017-09-11T23:21:39.841Z,13.80
2017-09-11T23:24:08.094Z,13.80
2017-09-11T23:26:36.358Z,13.80
2017-09-11T23:29:04.603Z,13.70
2017-09-11T23:31:32.843Z,13.70
2017-09-11T23:34:01.119Z,13.80
2017-09-11T23:36:29.364Z,13.70
2017-09-11T23:38:57.610Z,13.80
2017-09-11T23:41:27.143Z,13.70
2017-09-11T23:43:56.575Z,13.70
2017-09-11T23:46:24.825Z,13.70
2017-09-11T23:48:53.096Z,13.70
2017-09-11T23:51:21.338Z,13.80
2017-09-11T23:53:49.596Z,13.90
2017-09-11T23:56:17.846Z,13.90
2017-09-11T23:58:46.105Z,14.00
